Latest Coastal Weather Observations for Smithton

IDV60701

Issued at 2:52 am EST Tuesday 28 June 2022 (issued every 10 minutes, with the page automatically refreshed every 10 minutes)

About coastal observations | Map of coastal stations | Coastal observations for VIC | Marine services | Other Formats
Station Details ID: 091292 Name: SMITHTON AERODROME Lat: -40.83 Lon: 145.08 Height: 7.5 m
Data from the previous 72 hours. | See also: Recent months at Smithton
Date/Time
EST
Wind Sea
Height
m
Swell Vis
km
Cloud Weather Temp
°C
Press
MSL
hPa
Rain since
9am
mm
Dir  Spd
kts
Gust
kts
Height
m
Period
s
Dir
28/02:30am NNW 4 5 - - - - - - - 9.0 1028.9 0.2
28/02:00am NNW 5 6 - - - - - - - 8.9 1029.2 0.2
28/01:30am CALM 0 0 - - - - - - - 8.0 1029.3 0.0
28/01:00am NNW 4 4 - - - - - - - 8.3 1029.5 0.0
28/12:30am NW 4 5 - - - - - - - 8.9 1029.7 0.0
28/12:00am NW 1 5 - - - - - - - 7.4 1030.1 0.0
 
Date/Time
EST
Wind Sea
Height
m
Swell Vis
km
Cloud Weather Temp
°C
Press
MSL
hPa
Rain since
9am
mm
Dir  Spd
kts
Gust
kts
Height
m
Period
s
Dir
27/11:30pm NW 4 8 - - - - - - - 8.4 1030.4 0.0
27/11:00pm SSW 2 5 - - - - - - - 8.0 1030.3 0.0
27/10:30pm CALM 0 0 - - - - - - - 7.8 1030.2 0.0
27/10:00pm CALM 0 0 - - - - - - - 8.0 1030.3 0.0
27/09:30pm S 3 4 - - - - - - - 7.7 1030.8 0.0
27/09:00pm SW 1 4 - - - - - - - 7.7 1030.8 0.0
27/08:30pm CALM 0 3 - - - - - - - 7.7 1030.8 0.0
27/08:00pm E 5 6 - - - - - - - 7.7 1030.6 0.0
27/07:30pm CALM 0 0 - - - - - - - 7.7 1031.0 0.0
27/07:00pm SW 5 6 - - - - - - - 7.7 1031.1 0.0
27/06:30pm CALM 0 0 - - - - - - - 7.5 1030.9 0.0
27/06:00pm CALM 0 0 - - - - - - - 7.3 1030.8 0.0
27/05:30pm SW 2 3 - - - - - - - 7.8 1030.5 0.0
27/05:00pm SW 3 4 - - - - - - - 8.5 1030.5 0.0
27/04:30pm SW 3 4 - - - - - - - 10.0 1030.6 0.0
27/04:00pm SE 2 4 - - - - - - - 10.2 1030.5 0.0
27/03:30pm NW 4 5 - - - - - - - 10.6 1030.6 0.0
27/03:00pm WNW 6 7 - - - - - - - 10.9 1030.5 0.0
27/02:30pm W 4 6 - - - - - - - 11.4 1030.2 0.0
27/02:00pm SW 6 8 - - - - - - - 11.7 1030.3 0.0
27/01:30pm SW 5 7 - - - - - - - 11.5 1030.4 0.0
27/01:00pm SW 4 6 - - - - - - - 11.1 1030.5 0.0
27/12:30pm SSW 7 9 - - - - - - - 10.8 1031.0 0.0
27/12:00pm SSW 8 11 - - - - - - - 10.7 1030.8 0.0
27/11:30am SSW 9 12 - - - - - - - 9.9 1031.1 0.0
27/11:00am SSW 7 10 - - - - - - - 9.3 1031.3 0.0
27/10:30am SSW 6 8 - - - - - - - 8.4 1031.6 0.0
27/10:00am SSE 5 6 - - - - - - - 7.5 1031.1 0.0
27/09:30am SSW 5 7 - - - - - - - 7.0 1030.9 0.0
27/09:00am CALM 0 0 - - - - - - - 4.7 1030.5 3.0
27/08:30am WSW 5 8 - - - - - - - 3.6 1030.3 3.0
27/08:00am WSW 4 6 - - - - - - - 2.3 1029.8 3.0
27/07:30am ESE 3 5 - - - - - - - 1.6 1029.4 2.8
27/07:00am NNE 3 5 - - - - - - - 2.1 1029.2 2.8
27/06:30am NNW 4 6 - - - - - - - 2.1 1028.8 2.8
27/06:00am CALM 0 1 - - - - - - Recent precip. 2.3 1028.5 2.8
27/05:30am CALM 0 0 - - - - - - - 2.3 1028.0 2.8
27/05:00am S 3 3 - - - - - - - 2.8 1028.0 2.6
27/04:30am S 3 4 - - - - - - - 4.7 1027.6 2.6
27/04:00am SSW 6 10 - - - - - - - 5.1 1027.5 2.6
27/03:30am S 1 4 - - - - - - - 4.3 1027.3 1.6
27/03:00am WSW 6 7 - - - - - - Recent precip. 4.4 1027.3 1.6
27/02:30am S 4 4 - - - - - - - 2.9 1027.1 1.2
27/02:00am SSW 7 8 - - - - - - - 3.8 1027.1 1.2
27/01:30am SW 4 5 - - - - - - - 3.7 1026.5 1.2
27/01:00am SW 8 10 - - - - - - - 5.1 1026.5 1.2
27/12:30am SW 7 8 - - - - - - - 2.5 1026.1 1.2
27/12:00am SW 6 7 - - - - - - - 2.3 1026.2 1.0
 
Date/Time
EST
Wind Sea
Height
m
Swell Vis
km
Cloud Weather Temp
°C
Press
MSL
hPa
Rain since
9am
mm
Dir  Spd
kts
Gust
kts
Height
m
Period
s
Dir
26/11:30pm WSW 5 6 - - - - - - - 2.7 1026.0 1.0
26/11:00pm S 5 7 - - - - - - - 2.4 1025.7 1.0
26/10:30pm S 5 5 - - - - - - - 3.7 1025.6 1.0
26/10:00pm SW 9 13 - - - - - - - 5.1 1025.4 1.0
26/09:30pm SSW 5 6 - - - - - - - 3.7 1025.4 0.8
26/09:00pm WSW 3 5 - - - - - - - 3.7 1024.9 0.8
26/08:30pm WSW 6 8 - - - - - - - 2.9 1024.8 0.8
26/08:00pm WSW 3 4 - - - - - - - 3.7 1024.6 0.8
26/07:30pm SW 5 6 - - - - - - - 3.8 1024.0 0.8
26/07:00pm SSW 4 5 - - - - - - - 5.0 1023.8 0.8
26/06:30pm SSW 4 5 - - - - - - - 5.2 1023.2 0.8
26/06:00pm SSW 5 6 - - - - - - - 5.2 1022.8 0.8
26/05:30pm SW 10 13 - - - - - - - 6.8 1022.4 0.8
26/05:00pm SW 9 13 - - - - - - - 8.0 1022.3 0.8
26/04:30pm SW 9 10 - - - - - - - 8.9 1021.7 0.4
26/04:00pm SW 12 16 - - - - - - - 9.9 1021.4 0.4
26/03:30pm WSW 11 14 - - - - - - - 10.9 1021.0 0.4
26/03:00pm WSW 11 14 - - - - - - - 10.8 1020.6 0.4
26/02:30pm SSW 10 13 - - - - - - - 10.5 1020.4 0.4
26/02:00pm SW 11 15 - - - - - - - 10.7 1020.3 0.4
26/01:39pm SW 15 26 - - - - - - - 10.5 1020.2 0.2
26/01:30pm SW 12 15 - - - - - - - 11.9 1020.1 0.2
26/01:00pm WSW 10 13 - - - - - - - 11.9 1020.1 0.2
26/12:30pm WSW 9 12 - - - - - - - 10.9 1020.3 0.2
26/12:00pm WSW 13 19 - - - - - - Rain 9.3 1020.4 0.2
26/11:30am WSW 8 10 - - - - - - - 11.4 1020.3 0.0
26/11:00am WSW 9 14 - - - - - - - 11.4 1020.4 0.0
26/10:30am WSW 8 11 - - - - - - - 9.4 1020.2 0.0
26/10:00am SW 7 8 - - - - - - - 9.3 1019.9 0.0
26/09:30am CALM 0 5 - - - - - - - 7.9 1019.5 0.0
26/09:00am SSW 4 5 - - - - - - Recent precip. 7.7 1019.4 5.8
26/08:30am WSW 6 7 - - - - - - - 7.3 1019.2 5.8
26/08:00am WSW 13 21 - - - - - - - 7.5 1018.9 5.6
26/07:30am WSW 4 5 - - - - - - - 4.6 1018.3 5.4
26/07:00am W 6 8 - - - - - - - 5.2 1017.9 5.4
26/06:30am SW 7 7 - - - - - - - 5.8 1017.4 5.4
26/06:00am WSW 11 14 - - - - - - Recent precip. 7.6 1016.9 5.4
26/05:30am WSW 9 11 - - - - - - - 7.5 1016.4 5.4
26/05:00am WSW 11 13 - - - - - - - 7.8 1015.8 5.2
26/04:30am WSW 9 14 - - - - - - - 7.8 1015.3 5.2
26/04:00am WSW 10 12 - - - - - - - 7.9 1015.0 5.2
26/03:30am WSW 11 15 - - - - - - - 8.5 1014.5 5.2
26/03:00am WSW 12 15 - - - - - - Recent precip. 9.1 1014.4 5.2
26/02:30am WSW 12 17 - - - - - - - 9.3 1014.0 5.2
26/02:00am WSW 18 26 - - - - - - - 9.5 1014.1 5.0
26/01:30am WSW 12 15 - - - - - - - 10.0 1013.2 5.0
26/01:00am WSW 13 17 - - - - - - - 9.9 1013.2 5.0
26/12:30am WSW 13 17 - - - - - - - 9.9 1013.0 4.8
26/12:00am W 21 29 - - - - - - Recent precip. 10.6 1012.9 4.4
 
Date/Time
EST
Wind Sea
Height
m
Swell Vis
km
Cloud Weather Temp
°C
Press
MSL
hPa
Rain since
9am
mm
Dir  Spd
kts
Gust
kts
Height
m
Period
s
Dir
25/11:39pm W 19 30 - - - - - - - 10.9 1012.7 4.4
25/11:30pm W 21 29 - - - - - - - 10.7 1012.6 4.4
25/11:22pm W 24 37 - - - - - - - 11.2 1012.7 4.4
25/11:18pm WNW 21 37 - - - - - - - 11.5 1012.6 4.4
25/11:17pm WNW 19 37 - - - - - - - 11.6 1012.6 4.4
25/11:00pm W 15 25 - - - - - - - 11.8 1012.2 4.2
25/10:30pm WNW 16 20 - - - - - - - 11.9 1012.3 4.2
25/10:00pm WNW 13 18 - - - - - - - 11.3 1012.4 4.2
25/09:30pm WNW 12 17 - - - - - - - 10.7 1012.4 4.2
25/09:00pm WNW 14 18 - - - - - - Recent precip. 11.2 1012.6 4.2
25/08:30pm WNW 16 21 - - - - - - - 11.4 1012.6 3.6
25/08:18pm NW 13 22 - - - - - - - 11.3 1012.4 3.2
25/08:00pm WNW 7 11 - - - - - - - 10.4 1012.3 2.6
25/07:30pm WNW 7 9 - - - - - - - 10.2 1012.6 2.6
25/07:00pm W 13 19 - - - - - - - 11.4 1012.5 2.6
25/06:30pm WNW 13 19 - - - - - - - 11.2 1012.2 2.6
25/06:00pm W 18 25 - - - - - - Rain 11.2 1012.1 2.4
25/05:30pm WNW 14 19 - - - - - - - 12.5 1011.7 1.6
25/05:00pm WNW 14 18 - - - - - - - 12.7 1011.6 1.6
25/04:30pm WNW 15 22 - - - - - - - 12.9 1011.6 1.6
25/04:00pm WNW 17 25 - - - - - - - 13.3 1011.5 1.6
25/03:32pm WNW 17 27 - - - - - - - 13.4 1011.5 1.6
25/03:30pm WNW 17 26 - - - - - - - 13.4 1011.5 1.6
25/03:00pm WNW 17 22 - - - - - - - 13.3 1011.3 1.6
25/02:30pm WNW 17 29 - - - - - - - 13.2 1011.3 1.6
25/02:29pm WNW 17 29 - - - - - - - 13.3 1011.4 1.6
25/02:00pm WNW 17 25 - - - - - - - 13.7 1011.6 1.6
25/01:53pm WNW 17 27 - - - - - - - 13.9 1011.6 1.6
25/01:30pm WNW 17 21 - - - - - - - 14.1 1011.8 1.6
25/01:00pm WNW 20 30 - - - - - - - 12.9 1011.9 1.6
25/12:56pm WNW 19 30 - - - - - - - 12.5 1012.0 1.6
25/12:30pm WNW 16 20 - - - - - - - 12.7 1012.2 1.4
25/12:00pm W 19 28 - - - - - - Rain 12.0 1012.4 1.4
25/11:46am WNW 15 27 - - - - - - - 12.8 1012.3 0.4
25/11:30am W 16 23 - - - - - - - 12.7 1012.3 0.4
25/11:00am WNW 14 21 - - - - - - - 13.1 1012.6 0.2
25/10:30am W 13 19 - - - - - - - 11.5 1012.6 0.2
25/10:00am WNW 12 17 - - - - - - - 12.1 1012.4 0.0
25/09:30am WNW 14 20 - - - - - - - 11.7 1012.2 0.0
25/09:00am W 14 18 - - - - - - Rain 11.4 1012.1 2.0
25/08:30am WNW 11 17 - - - - - - - 11.5 1011.6 1.6
25/08:00am WNW 13 17 - - - - - - - 10.9 1011.6 1.6
25/07:30am WNW 11 14 - - - - - - - 10.3 1011.6 1.6
25/07:00am WNW 10 12 - - - - - - - 10.0 1011.4 1.6
25/06:30am WNW 9 11 - - - - - - - 9.4 1011.3 1.6
25/06:00am W 9 11 - - - - - - Rain 10.1 1011.2 1.6
25/05:30am WNW 11 14 - - - - - - - 10.1 1010.9 1.4
25/05:00am WNW 10 14 - - - - - - - 9.6 1010.8 1.4
25/04:30am WNW 13 17 - - - - - - - 9.9 1010.6 1.4
25/04:00am WNW 12 16 - - - - - - - 10.1 1010.6 1.4
25/03:30am WNW 10 14 - - - - - - - 10.3 1010.8 1.4
25/03:00am WNW 12 16 - - - - - - Recent precip. 10.4 1010.8 0.8

Other formats

Comma delimited format used in spreadsheet applications
http://www.bom.gov.au/fwo/IDV60701/IDV60701.94953.axf

JavaScript Object Notation format (JSON) in row-major order
http://www.bom.gov.au/fwo/IDV60701/IDV60701.94953.json

Data quality

Most of these data are generated automatically and are frequently updated. Quality checks on data are not normally performed. It is possible for incorrect values to appear. Refer to information at About Latest Weather Observations and please check the disclaimer before using these data.